Kostroma — UGGU — position and weather

sailwx.info

Track history (hours):
 
Tides and Currents Weather Stations Pressure Air Temp Water Temp Dewpoint Dewpoint Depression Visibility Wind Speed Wind Dir Waves Ship Positions

Kostroma

Last reported at 2018-Jul-19 11:25 UTC. Time now 2018-Jul-20 17:46 UTC.
Position N 45°33' E 036°46'.

Length 141 m; draft 2.8 m.

Type: Tanker. MMSI: 273433680.

Date/timePositionNaut miles runAvg speedWind from/ knotsBaromVisibWave heightAir tempDewpointWater temp
2018-Jul-19 11:25N 45°33' E 036°46'4 8.5
2018-Jul-19 10:59N 45°30' E 036°44'510.7
2018-Jul-19 10:30N 45°25' E 036°41'4 7.9
2018-Jul-19 10:00N 45°22' E 036°40'5 9.7
2018-Jul-19 09:30N 45°19' E 036°33'4 8.2
2018-Jul-19 09:01N 45°17' E 036°29'2 4.7
2018-Jul-19 08:30N 45°15' E 036°29'3 5.5
2018-Jul-19 07:55N 45°12' E 036°31'0 0.5
2018-Jul-19 07:13N 45°11' E 036°31'1 0.2
2018-Jul-19 03:26N 45°11' E 036°31'3 7.1
2018-Jul-19 03:00N 45°08' E 036°32'9 0.5
2018-Jul-18 09:05N 45°16' E 036°28'1 6.1
2018-Jul-18 08:57N 45°17' E 036°29'3 4.9
2018-Jul-18 08:20N 45°19' E 036°32'2 5.2
2018-Jul-18 08:00N 45°19' E 036°34'2 4.5
2018-Jul-18 07:30N 45°20' E 036°37'3 5.5
2018-Jul-18 06:59N 45°22' E 036°40'2 3.9
2018-Jul-18 06:30N 45°24' E 036°41'2 4.0
2018-Jul-18 06:00N 45°26' E 036°42'1 2.0
2018-Jul-18 05:30N 45°26' E 036°43'1 2.8
2018-Jul-18 05:00N 45°28' E 036°44'1 2.2
2018-Jul-18 04:22N 45°29' E 036°45'  
Track history (hours):
 
Tides and Currents Weather Stations Pressure Air Temp Water Temp Dewpoint Dewpoint Depression Visibility Wind Speed Wind Dir Waves Ship Positions

Kostroma

Last reported at 2018-Jul-19 11:25 UTC. Time now 2018-Jul-20 17:46 UTC.
Position N 45°33' E 036°46'.

Length 141 m; draft 2.8 m.

Type: Tanker. MMSI: 273433680.

Date/timePositionNaut miles runAvg speedWind from/ knotsBaromVisibWave heightAir tempDewpointWater temp
2018-Jul-19 11:25N 45°33' E 036°46'4 8.5
2018-Jul-19 10:59N 45°30' E 036°44'510.7
2018-Jul-19 10:30N 45°25' E 036°41'4 7.9
2018-Jul-19 10:00N 45°22' E 036°40'5 9.7
2018-Jul-19 09:30N 45°19' E 036°33'4 8.2
2018-Jul-19 09:01N 45°17' E 036°29'2 4.7
2018-Jul-19 08:30N 45°15' E 036°29'3 5.5
2018-Jul-19 07:55N 45°12' E 036°31'0 0.5
2018-Jul-19 07:13N 45°11' E 036°31'1 0.2
2018-Jul-19 03:26N 45°11' E 036°31'3 7.1
2018-Jul-19 03:00N 45°08' E 036°32'9 0.5
2018-Jul-18 09:05N 45°16' E 036°28'1 6.1
2018-Jul-18 08:57N 45°17' E 036°29'3 4.9
2018-Jul-18 08:20N 45°19' E 036°32'2 5.2
2018-Jul-18 08:00N 45°19' E 036°34'2 4.5
2018-Jul-18 07:30N 45°20' E 036°37'3 5.5
2018-Jul-18 06:59N 45°22' E 036°40'2 3.9
2018-Jul-18 06:30N 45°24' E 036°41'2 4.0
2018-Jul-18 06:00N 45°26' E 036°42'1 2.0
2018-Jul-18 05:30N 45°26' E 036°43'1 2.8
2018-Jul-18 05:00N 45°28' E 036°44'1 2.2
2018-Jul-18 04:22N 45°29' E 036°45'  

Dump ship's entire track history